Time;durP1;ratioP1;P1;durP2;ratioP2;P2;SDS_P1;SDS_P2;PMS_P1;PMS_P2;Temp;Humidity;BMP_temperature;BMP_pressure;BME280_temperature;BME280_humidity;BME280_pressure;Samples;Min_cycle;Max_cycle;Signal;HPM_P1;HPM_P2
2022/07/12 00:00:33;;;;;;;6.53;4.82;;;;;;;16.51;93.09;102305.00;5111709;28;20035;-60
2022/07/12 00:02:58;;;;;;;5.20;4.70;;;;;;;16.52;92.58;102296.19;5111540;28;20067;-59
2022/07/12 00:05:23;;;;;;;7.32;5.65;;;;;;;16.53;92.57;102299.72;5115206;28;20046;-60
2022/07/12 00:07:49;;;;;;;7.30;5.50;;;;;;;16.41;93.38;102297.25;5115692;28;20027;-60
2022/07/12 00:10:14;;;;;;;6.20;5.60;;;;;;;16.43;93.52;102292.81;5115544;28;20061;-61
2022/07/12 00:12:39;;;;;;;6.03;5.43;;;;;;;16.37;93.43;102285.84;5115309;28;20474;-61
2022/07/12 00:15:05;;;;;;;12.48;6.65;;;;;;;16.41;93.28;102286.69;5115342;28;20438;-60
2022/07/12 00:17:31;;;;;;;8.80;6.80;;;;;;;16.31;93.54;102285.91;5115413;28;20110;-60
2022/07/12 00:19:56;;;;;;;7.93;6.00;;;;;;;16.24;93.95;102282.50;5115143;28;20110;-60
2022/07/12 00:22:22;;;;;;;9.55;5.43;;;;;;;16.21;94.48;102279.03;5115129;28;20443;-60
2022/07/12 00:24:48;;;;;;;6.10;5.50;;;;;;;16.25;93.94;102278.97;5115002;28;20028;-60
2022/07/12 00:27:13;;;;;;;7.15;5.97;;;;;;;16.14;94.12;102278.22;5114678;28;20108;-60
2022/07/12 00:29:38;;;;;;;6.10;5.40;;;;;;;16.15;94.28;102285.25;5115031;28;20081;-61
2022/07/12 00:32:04;;;;;;;5.82;5.20;;;;;;;16.13;94.19;102287.03;5114952;28;20042;-59
2022/07/12 00:34:29;;;;;;;8.15;5.63;;;;;;;16.14;94.19;102288.78;5115058;28;20092;-59
2022/07/12 00:36:54;;;;;;;7.60;5.75;;;;;;;16.00;94.49;102272.25;5114605;28;20031;-60
2022/07/12 00:39:19;;;;;;;7.35;5.65;;;;;;;16.16;94.46;102288.78;5114948;28;20040;-60
2022/07/12 00:41:48;;;;;;;6.60;6.00;;;;;;;16.09;94.89;102285.38;5114920;28;20117;-61
2022/07/12 00:44:13;;;;;;;7.72;5.80;;;;;;;16.11;94.48;102285.31;5114816;28;20074;-60
2022/07/12 00:46:39;;;;;;;7.00;5.60;;;;;;;16.09;94.49;102280.09;5114829;28;20406;-60
2022/07/12 00:49:05;;;;;;;5.93;5.30;;;;;;;16.05;94.68;102283.66;5114778;28;20035;-60
2022/07/12 00:51:30;;;;;;;5.90;5.30;;;;;;;15.99;94.82;102284.59;5114619;28;20038;-60
2022/07/12 00:53:58;;;;;;;5.78;5.13;;;;;;;15.99;94.81;102276.66;5114445;28;20040;-61
2022/07/12 00:56:24;;;;;;;6.38;4.85;;;;;;;15.95;95.00;102284.66;5114430;28;20043;-60
2022/07/12 00:58:49;;;;;;;5.38;4.80;;;;;;;15.97;95.09;102278.47;5114342;28;20031;-60
2022/07/12 01:01:14;;;;;;;6.15;5.15;;;;;;;15.94;95.30;102274.97;5114495;28;20067;-60
2022/07/12 01:03:41;;;;;;;5.85;5.25;;;;;;;15.92;95.69;102282.94;5114350;28;20104;-60
2022/07/12 01:06:07;;;;;;;5.53;4.90;;;;;;;15.88;95.83;102278.59;5114648;28;20108;-60
2022/07/12 01:08:33;;;;;;;5.55;5.00;;;;;;;15.91;95.99;102278.56;5114518;28;20028;-60
2022/07/12 01:10:59;;;;;;;5.88;4.70;;;;;;;15.82;96.16;102276.00;5114384;28;20069;-60
2022/07/12 01:13:24;;;;;;;6.93;5.38;;;;;;;15.80;96.11;102280.44;5114255;28;20054;-60
2022/07/12 01:15:52;;;;;;;8.15;6.40;;;;;;;15.78;95.58;102282.22;5114079;28;20052;-59
2022/07/12 01:18:18;;;;;;;6.57;5.55;;;;;;;15.77;96.27;102282.22;5114247;28;20077;-59
2022/07/12 01:20:44;;;;;;;7.63;5.90;;;;;;;15.78;96.21;102289.25;5114149;28;20027;-60
2022/07/12 01:23:11;;;;;;;12.05;10.25;;;;;;;15.76;95.93;102283.16;5114112;28;20526;-60
2022/07/12 01:25:37;;;;;;;9.57;8.55;;;;;;;15.60;96.43;102285.94;5113819;28;20035;-59
2022/07/12 01:28:02;;;;;;;17.00;13.82;;;;;;;15.61;96.41;102287.69;5113537;28;20036;-60
2022/07/12 01:30:28;;;;;;;16.52;12.02;;;;;;;15.56;96.67;102292.16;5113996;28;20060;-60
2022/07/12 01:32:53;;;;;;;13.27;9.68;;;;;;;15.48;97.60;102307.16;5114056;28;20067;-60
2022/07/12 01:35:18;;;;;;;12.73;9.10;;;;;;;15.40;97.74;102306.38;5114122;28;20032;-59
2022/07/12 01:37:44;;;;;;;11.52;9.35;;;;;;;15.43;98.05;102303.69;5113727;28;20027;-59
2022/07/12 01:40:12;;;;;;;10.63;8.10;;;;;;;15.44;97.86;102294.88;5113779;28;20039;-60
2022/07/12 01:42:38;;;;;;;8.32;7.13;;;;;;;15.50;97.28;102296.59;5113781;28;20032;-59
2022/07/12 01:45:06;;;;;;;7.95;6.00;;;;;;;15.48;97.11;102307.16;5113540;28;20035;-59
2022/07/12 01:47:32;;;;;;;8.90;6.57;;;;;;;15.40;97.20;102298.47;5113624;28;20450;-60
2022/07/12 01:49:58;;;;;;;7.53;6.00;;;;;;;15.34;97.40;102309.06;5107278;28;20101;-60
2022/07/12 01:52:24;;;;;;;7.05;5.43;;;;;;;15.26;97.58;102305.59;5093050;28;20054;-60
2022/07/12 01:54:50;;;;;;;6.43;5.65;;;;;;;15.20;98.24;102300.41;5093295;28;20115;-60
2022/07/12 01:57:15;;;;;;;7.82;6.05;;;;;;;15.31;98.11;102298.53;5092890;28;20431;-59
2022/07/12 01:59:41;;;;;;;6.32;5.72;;;;;;;15.30;97.63;102294.16;5093048;28;20050;-59
2022/07/12 02:02:07;;;;;;;7.45;5.97;;;;;;;15.26;97.97;102293.28;5092769;28;20436;-59
2022/07/12 02:04:33;;;;;;;7.68;5.85;;;;;;;15.27;97.45;102294.16;5092686;28;20043;-59
2022/07/12 02:06:58;;;;;;;6.80;5.22;;;;;;;15.23;97.52;102287.19;5092247;28;20111;-60
2022/07/12 02:09:24;;;;;;;6.75;5.20;;;;;;;15.22;97.01;102290.72;5092874;28;20109;-60
2022/07/12 02:11:49;;;;;;;7.30;5.35;;;;;;;15.12;97.05;102296.94;5092634;28;20412;-60
2022/07/12 02:14:16;;;;;;;5.63;5.03;;;;;;;14.96;97.42;102297.09;5092729;28;20044;-61
2022/07/12 02:16:42;;;;;;;7.45;4.93;;;;;;;14.95;97.94;102292.69;5092536;28;20398;-59
2022/07/12 02:19:09;;;;;;;7.22;4.90;;;;;;;14.93;97.67;102285.69;5092464;28;20113;-60
2022/07/12 02:21:34;;;;;;;7.68;5.63;;;;;;;14.88;98.18;102285.75;5092656;28;20047;-60
2022/07/12 02:24:00;;;;;;;5.25;4.70;;;;;;;14.87;97.57;102288.41;5092607;28;20036;-60
2022/07/12 02:26:26;;;;;;;7.47;5.00;;;;;;;14.86;97.49;102281.38;5091575;28;20039;-59
2022/07/12 02:28:51;;;;;;;6.47;4.63;;;;;;;14.85;98.19;102282.25;5092046;28;20056;-60
2022/07/12 02:31:16;;;;;;;6.13;4.80;;;;;;;14.94;97.82;102290.94;5092333;28;20356;-59
2022/07/12 02:33:42;;;;;;;4.93;4.30;;;;;;;14.93;97.05;102289.19;5092514;28;20036;-61
2022/07/12 02:36:08;;;;;;;5.65;4.22;;;;;;;14.89;96.74;102295.38;5091884;28;20050;-59
2022/07/12 02:38:33;;;;;;;5.72;4.35;;;;;;;14.86;96.84;102295.44;5092132;28;20042;-59
2022/07/12 02:40:58;;;;;;;5.68;4.72;;;;;;;14.84;96.60;102284.03;5092305;28;20367;-60
2022/07/12 02:43:28;;;;;;;5.60;4.50;;;;;;;14.79;96.81;102291.06;5092018;28;20038;-60
2022/07/12 02:45:56;;;;;;;5.32;4.82;;;;;;;14.74;96.70;102287.59;5092364;28;20053;-59
2022/07/12 02:48:22;;;;;;;4.68;4.28;;;;;;;14.73;96.64;102296.38;5092187;28;20051;-60
2022/07/12 02:50:47;;;;;;;5.65;4.75;;;;;;;14.73;96.88;102291.13;5092126;28;20051;-59
2022/07/12 02:53:13;;;;;;;5.82;4.50;;;;;;;14.75;96.43;102293.75;5091857;28;20083;-60
2022/07/12 02:55:38;;;;;;;6.82;4.75;;;;;;;14.68;96.72;102290.28;5091738;28;20028;-60
2022/07/12 02:58:07;;;;;;;7.40;4.75;;;;;;;14.69;96.37;102285.91;5092011;28;20035;-60
2022/07/12 03:00:33;;;;;;;5.97;5.32;;;;;;;14.69;96.10;102288.53;5091981;28;20028;-60
2022/07/12 03:02:58;;;;;;;7.53;4.70;;;;;;;14.56;96.85;102279.81;5091985;28;20047;-59
2022/07/12 03:05:24;;;;;;;5.78;4.80;;;;;;;14.56;96.55;102288.59;5091831;28;20066;-60
2022/07/12 03:07:49;;;;;;;6.50;5.07;;;;;;;14.50;97.16;102293.06;5091900;28;20109;-59
2022/07/12 03:10:15;;;;;;;5.18;4.50;;;;;;;14.42;97.87;102295.72;5091974;28;20050;-60
2022/07/12 03:12:40;;;;;;;6.25;5.20;;;;;;;14.44;97.75;102293.97;5091687;28;20126;-60
2022/07/12 03:15:06;;;;;;;7.75;6.18;;;;;;;14.42;97.80;102289.56;5091838;28;20378;-60
2022/07/12 03:17:32;;;;;;;6.25;5.35;;;;;;;14.32;98.22;102285.22;5091659;28;20676;-60
2022/07/12 03:19:58;;;;;;;6.53;5.50;;;;;;;14.28;98.14;102281.72;5091643;28;20036;-59
2022/07/12 03:22:23;;;;;;;7.13;5.35;;;;;;;14.40;97.45;102283.41;5091635;28;20040;-59
2022/07/12 03:24:49;;;;;;;6.07;5.47;;;;;;;14.41;97.57;102282.56;5091485;28;20036;-60
2022/07/12 03:27:14;;;;;;;7.53;5.80;;;;;;;14.39;97.62;102285.16;5091541;28;20351;-60
2022/07/12 03:29:40;;;;;;;6.57;5.82;;;;;;;14.39;97.61;102284.28;5091496;28;20062;-60
2022/07/12 03:32:06;;;;;;;7.07;6.00;;;;;;;14.41;97.31;102285.19;5091478;28;20351;-59
2022/07/12 03:34:32;;;;;;;5.78;5.18;;;;;;;14.44;97.18;102287.81;5091630;28;20036;-60
2022/07/12 03:36:58;;;;;;;6.97;5.75;;;;;;;14.43;97.05;102284.31;5091545;28;20040;-60
2022/07/12 03:39:23;;;;;;;6.75;6.15;;;;;;;14.43;97.63;102289.56;5093254;28;20027;-60
2022/07/12 03:41:48;;;;;;;6.85;5.80;;;;;;;14.39;97.71;102289.56;5095576;28;20032;-60
2022/07/12 03:44:14;;;;;;;8.02;5.80;;;;;;;14.38;97.80;102300.97;5095811;28;20144;-60
2022/07/12 03:46:39;;;;;;;8.23;6.47;;;;;;;14.38;98.11;102306.25;5095551;28;20024;-59
2022/07/12 03:49:05;;;;;;;7.97;6.90;;;;;;;14.39;98.45;102294.81;5095581;28;20036;-60
2022/07/12 03:51:30;;;;;;;6.78;6.18;;;;;;;14.36;98.80;102293.13;5095381;28;20411;-59
2022/07/12 03:53:56;;;;;;;7.95;6.70;;;;;;;14.39;98.63;102297.47;5095265;28;20048;-59
2022/07/12 03:59:05;;;;;;;7.00;6.30;;;;;;;14.41;98.41;102296.59;5095611;28;20098;-60
2022/07/12 04:01:32;;;;;;;9.70;6.82;;;;;;;14.41;98.58;102293.09;5095319;28;20063;-60
2022/07/12 04:03:58;;;;;;;8.48;7.00;;;;;;;14.46;98.34;102299.22;5095222;28;20078;-60
2022/07/12 04:06:23;;;;;;;8.30;7.13;;;;;;;14.40;98.85;102292.22;5095074;28;20420;-60
2022/07/12 04:08:49;;;;;;;7.68;6.82;;;;;;;14.42;98.67;102277.28;5095099;28;20028;-59
2022/07/12 04:11:14;;;;;;;7.30;6.60;;;;;;;14.48;99.21;102279.00;5095027;28;20100;-60
2022/07/12 04:13:39;;;;;;;8.57;7.40;;;;;;;14.52;99.26;102272.84;5095062;28;20105;-59
2022/07/12 04:16:05;;;;;;;9.77;7.53;;;;;;;14.53;99.41;102275.47;5095193;28;20055;-59
2022/07/12 04:18:30;;;;;;;8.73;7.13;;;;;;;14.57;99.19;102278.94;5094923;28;20032;-59
2022/07/12 04:20:56;;;;;;;7.57;6.80;;;;;;;14.54;99.25;102281.63;5094923;28;20036;-59
2022/07/12 04:23:21;;;;;;;9.15;8.30;;;;;;;14.54;99.39;102300.06;5094832;28;20024;-60
2022/07/12 04:25:46;;;;;;;10.77;8.95;;;;;;;14.54;100.00;102293.03;5094923;28;20585;-57
2022/07/12 04:28:11;;;;;;;8.73;7.75;;;;;;;14.48;100.00;102289.56;5094596;28;20038;-59
2022/07/12 04:30:37;;;;;;;9.02;8.13;;;;;;;14.51;100.00;102290.41;5094612;28;20043;-59
2022/07/12 04:33:02;;;;;;;8.82;8.02;;;;;;;14.62;100.00;102293.84;5094681;28;20350;-59
2022/07/12 04:35:27;;;;;;;10.77;8.60;;;;;;;14.68;100.00;102290.28;5094834;28;20047;-58
2022/07/12 04:37:52;;;;;;;8.70;7.90;;;;;;;14.73;100.00;102299.03;5094608;28;20371;-59
2022/07/12 04:40:18;;;;;;;9.35;8.07;;;;;;;14.60;100.00;102289.47;5094549;28;20042;-59
2022/07/12 04:42:43;;;;;;;9.00;8.10;;;;;;;14.75;100.00;102304.28;5094353;28;20050;-59
2022/07/12 04:45:08;;;;;;;8.95;8.15;;;;;;;14.78;100.00;102305.13;5094632;28;20064;-59
2022/07/12 04:47:37;;;;;;;8.75;7.95;;;;;;;14.82;100.00;102308.63;5094596;28;20065;-59
2022/07/12 04:50:07;;;;;;;10.32;9.23;;;;;;;14.86;100.00;102305.09;5093564;28;20032;-58
2022/07/12 04:52:34;;;;;;;10.52;9.52;;;;;;;14.91;100.00;102311.19;5094234;28;20055;-59
2022/07/12 04:54:59;;;;;;;12.10;8.75;;;;;;;14.93;100.00;102305.00;5094086;28;20123;-58
2022/07/12 04:57:24;;;;;;;9.55;8.55;;;;;;;15.00;100.00;102308.50;5094173;28;20456;-58
2022/07/12 04:59:50;;;;;;;9.88;8.88;;;;;;;15.07;100.00;102302.25;5094250;28;20028;-58
2022/07/12 05:02:15;;;;;;;11.15;10.07;;;;;;;15.18;100.00;102295.16;5094168;28;20406;-57
2022/07/12 05:04:40;;;;;;;11.15;10.07;;;;;;;15.26;100.00;102301.22;5094173;28;20073;-58
2022/07/12 05:07:06;;;;;;;11.30;10.30;;;;;;;15.33;100.00;102302.03;5093921;28;20032;-59
2022/07/12 05:09:31;;;;;;;10.00;9.05;;;;;;;15.40;100.00;102301.09;5093802;28;20032;-58
2022/07/12 05:11:56;;;;;;;11.82;10.40;;;;;;;15.50;100.00;102308.00;5093496;28;20031;-58
2022/07/12 05:14:21;;;;;;;11.77;10.57;;;;;;;15.61;100.00;102315.84;5093783;28;20035;-58
2022/07/12 05:16:47;;;;;;;13.23;11.95;;;;;;;15.69;100.00;102321.91;5093811;28;20443;-58
2022/07/12 05:19:12;;;;;;;14.93;13.43;;;;;;;15.80;100.00;102313.88;5093622;28;20043;-58
2022/07/12 05:21:37;;;;;;;14.32;12.82;;;;;;;15.86;100.00;102308.53;5093463;28;20028;-58
2022/07/12 05:24:03;;;;;;;18.05;13.98;;;;;;;15.96;100.00;102318.06;5101425;28;20028;-58
2022/07/12 05:26:29;;;;;;;19.70;15.73;;;;;;;16.05;100.00;102325.91;5103115;28;20443;-59
2022/07/12 05:28:55;;;;;;;17.40;15.55;;;;;;;16.14;100.00;102331.06;5105314;28;20056;-59
2022/07/12 05:31:20;;;;;;;17.13;15.32;;;;;;;16.22;100.00;102325.69;5111459;28;20118;-58
2022/07/12 05:33:45;;;;;;;22.00;16.55;;;;;;;16.25;100.00;102331.81;5112474;28;20092;-58
2022/07/12 05:36:10;;;;;;;17.70;14.10;;;;;;;16.29;100.00;102340.53;5113617;28;20084;-58
2022/07/12 05:38:36;;;;;;;17.98;15.90;;;;;;;16.35;100.00;102348.41;5107222;28;20035;-58
2022/07/12 05:41:01;;;;;;;18.30;15.88;;;;;;;16.41;100.00;102342.16;5113760;28;20422;-58
2022/07/12 05:43:26;;;;;;;15.77;14.18;;;;;;;16.50;100.00;102347.31;5113639;28;20035;-59
2022/07/12 05:45:52;;;;;;;17.75;14.35;;;;;;;16.61;100.00;102350.69;5113706;28;20092;-59
2022/07/12 05:48:17;;;;;;;18.23;15.57;;;;;;;16.68;100.00;102347.97;5113403;28;20463;-58
2022/07/12 05:50:42;;;;;;;16.50;14.70;;;;;;;16.82;99.90;102358.31;5113497;28;20045;-57
2022/07/12 05:53:23;;;;;;;16.98;15.02;;;;;;;16.86;99.89;102338.00;5113215;28;20031;-59
2022/07/12 05:55:53;;;;;;;18.55;15.00;;;;;;;17.10;97.75;102361.44;5113392;28;20059;-58
2022/07/12 05:58:19;;;;;;;16.83;14.88;;;;;;;17.52;96.69;102370.41;5113528;28;20039;-59
2022/07/12 06:00:46;;;;;;;16.75;15.02;;;;;;;17.69;94.93;102365.69;5112552;28;20039;-59
2022/07/12 06:03:13;;;;;;;16.45;14.20;;;;;;;17.72;95.22;102364.78;5112382;28;20358;-57
2022/07/12 06:05:38;;;;;;;16.55;14.63;;;;;;;17.72;94.64;102360.34;5113221;28;20027;-58
2022/07/12 06:08:04;;;;;;;16.02;14.30;;;;;;;17.77;94.56;102370.88;5112989;28;20435;-57
2022/07/12 06:10:29;;;;;;;16.60;13.93;;;;;;;17.77;94.08;102362.91;5113234;28;20664;-58
2022/07/12 06:12:54;;;;;;;17.15;15.35;;;;;;;17.92;94.97;102373.22;5113059;28;20049;-58
2022/07/12 06:15:19;;;;;;;15.90;14.23;;;;;;;18.36;92.41;102374.06;5112420;28;20039;-58
2022/07/12 06:17:45;;;;;;;15.68;13.93;;;;;;;18.48;90.91;102365.00;5112840;28;20740;-58
2022/07/12 06:20:11;;;;;;;17.48;14.82;;;;;;;18.47;91.30;102377.38;5112883;28;20046;-58
2022/07/12 06:22:36;;;;;;;14.75;13.20;;;;;;;18.50;90.95;102373.81;5112961;28;20039;-58
2022/07/12 06:25:02;;;;;;;13.88;12.02;;;;;;;18.56;88.88;102376.28;5112701;28;20454;-59
2022/07/12 06:27:27;;;;;;;13.70;12.27;;;;;;;18.64;88.49;102374.41;5112451;28;20047;-59
2022/07/12 06:29:52;;;;;;;15.50;11.50;;;;;;;18.73;88.85;102376.81;5112684;28;20142;-58
2022/07/12 06:32:18;;;;;;;15.23;13.52;;;;;;;18.77;87.66;102371.41;5112622;28;20035;-59
2022/07/12 06:34:43;;;;;;;15.43;12.88;;;;;;;18.83;88.07;102370.41;5112861;28;20405;-59
2022/07/12 06:37:08;;;;;;;14.13;12.52;;;;;;;18.83;88.90;102364.25;5112630;28;20047;-58
2022/07/12 06:39:36;;;;;;;17.15;12.45;;;;;;;18.76;89.16;102358.19;5112500;28;20070;-58
2022/07/12 06:42:05;;;;;;;17.15;13.52;;;;;;;18.93;88.04;102376.38;5112504;28;20107;-58
2022/07/12 06:44:31;;;;;;;15.88;13.45;;;;;;;18.95;87.27;102374.56;5112444;28;20070;-58
2022/07/12 06:46:58;;;;;;;18.42;14.15;;;;;;;19.02;87.59;102379.69;5112595;28;20100;-58
2022/07/12 06:49:23;;;;;;;17.25;12.98;;;;;;;19.11;87.74;102379.44;5112214;28;20034;-58
2022/07/12 06:51:49;;;;;;;16.52;14.27;;;;;;;19.16;88.12;102376.69;5112347;28;20354;-58
2022/07/12 06:54:14;;;;;;;16.40;13.93;;;;;;;19.24;88.22;102385.31;5112366;28;20042;-58
2022/07/12 06:56:39;;;;;;;14.90;13.02;;;;;;;19.24;87.50;102382.66;5112303;28;20042;-58
2022/07/12 06:59:05;;;;;;;15.57;12.65;;;;;;;19.25;87.26;102384.41;5112161;28;20625;-59
2022/07/12 07:01:30;;;;;;;14.65;13.15;;;;;;;19.30;87.18;102384.31;5112090;28;20050;-58
2022/07/12 07:03:55;;;;;;;16.45;14.55;;;;;;;19.36;87.44;102376.19;5112257;28;20381;-57
2022/07/12 07:06:21;;;;;;;15.82;13.88;;;;;;;19.43;86.79;102381.28;5111998;28;20059;-57
2022/07/12 07:08:46;;;;;;;13.82;12.32;;;;;;;19.43;85.54;102367.16;5103997;28;20404;-57
2022/07/12 07:11:11;;;;;;;13.73;11.68;;;;;;;19.51;84.93;102380.28;5096094;28;20119;-58
2022/07/12 07:13:37;;;;;;;11.88;10.48;;;;;;;19.57;84.64;102380.97;5091716;28;20036;-58
2022/07/12 07:16:02;;;;;;;13.80;11.10;;;;;;;19.68;84.50;102378.91;5091436;28;20383;-60
2022/07/12 07:18:27;;;;;;;13.88;12.48;;;;;;;19.71;82.95;102372.66;5091274;28;20057;-60
2022/07/12 07:20:53;;;;;;;14.27;11.32;;;;;;;19.72;83.73;102374.41;5091256;28;20032;-60
2022/07/12 07:23:19;;;;;;;11.40;10.13;;;;;;;19.77;83.64;102370.69;5091529;28;20063;-60
2022/07/12 07:25:45;;;;;;;13.45;10.30;;;;;;;19.84;82.45;102371.41;5091669;28;20032;-61
2022/07/12 07:28:11;;;;;;;12.73;10.73;;;;;;;19.95;81.48;102371.09;5091491;28;20040;-61
2022/07/12 07:30:52;;;;;;;10.82;8.63;;;;;;;20.06;80.89;102371.69;5091251;28;20059;-61
2022/07/12 07:33:17;;;;;;;9.68;8.70;;;;;;;20.23;80.63;102371.19;5091305;28;20031;-61
2022/07/12 07:35:43;;;;;;;10.93;9.68;;;;;;;20.38;78.56;102371.63;5091429;28;20040;-60
2022/07/12 07:38:09;;;;;;;10.77;9.68;;;;;;;20.55;77.71;102371.13;5091379;28;20031;-60
2022/07/12 07:40:35;;;;;;;10.63;9.25;;;;;;;20.59;77.03;102371.91;5091623;28;20706;-61
2022/07/12 07:43:00;;;;;;;10.65;8.57;;;;;;;20.63;77.24;102365.56;5090637;28;20094;-60
2022/07/12 07:45:25;;;;;;;7.15;6.45;;;;;;;20.65;76.08;102366.38;5091291;28;20028;-61
2022/07/12 07:47:50;;;;;;;9.23;6.80;;;;;;;20.67;76.40;102362.75;5091403;28;20105;-61
2022/07/12 07:50:16;;;;;;;8.40;7.60;;;;;;;20.72;74.89;102365.28;5091341;28;20039;-61
2022/07/12 07:52:41;;;;;;;7.07;5.72;;;;;;;20.75;74.71;102360.75;5103433;28;20112;-61
2022/07/12 07:55:07;;;;;;;7.20;5.82;;;;;;;20.87;74.80;102364.78;5111821;28;20118;-61
2022/07/12 07:57:32;;;;;;;7.97;5.38;;;;;;;20.93;73.95;102363.72;5111521;28;20094;-61
2022/07/12 07:59:57;;;;;;;6.20;5.60;;;;;;;21.06;71.67;102365.06;5111530;28;20496;-61
2022/07/12 08:02:23;;;;;;;7.53;6.15;;;;;;;21.02;71.39;102340.34;5111513;28;20362;-61
2022/07/12 08:04:48;;;;;;;104.85;15.50;;;;;;;21.24;71.79;102360.97;5111626;28;20032;-61
2022/07/12 08:07:13;;;;;;;20.92;7.28;;;;;;;21.34;71.59;102362.38;5111520;28;20052;-60
2022/07/12 08:09:39;;;;;;;7.22;6.38;;;;;;;21.38;69.95;102361.34;5111291;28;20124;-60
2022/07/12 08:12:04;;;;;;;6.43;5.72;;;;;;;21.42;70.32;102363.00;5111413;28;20082;-60
2022/07/12 08:14:30;;;;;;;7.00;6.30;;;;;;;21.40;69.51;102357.72;5111510;28;20032;-60
2022/07/12 08:16:56;;;;;;;8.85;6.53;;;;;;;21.47;69.51;102361.06;5111383;28;20028;-60
2022/07/12 08:19:21;;;;;;;8.23;5.88;;;;;;;21.61;70.28;102357.91;5111383;28;20453;-60
2022/07/12 08:21:46;;;;;;;7.00;5.80;;;;;;;21.73;68.70;102358.31;5111358;28;20036;-61
2022/07/12 08:24:12;;;;;;;10.20;6.55;;;;;;;21.86;67.57;102358.75;5111113;28;20039;-60
2022/07/12 08:26:37;;;;;;;11.80;6.75;;;;;;;21.92;67.65;102350.53;5115073;28;20034;-61
2022/07/12 08:29:02;;;;;;;10.30;6.10;;;;;;;21.98;68.53;102350.31;5114584;28;20139;-61
2022/07/12 08:31:27;;;;;;;8.73;6.10;;;;;;;22.12;67.12;102358.69;5114694;28;20039;-61
2022/07/12 08:33:53;;;;;;;10.52;6.43;;;;;;;22.14;65.75;102366.66;5114885;28;20426;-62
2022/07/12 08:36:18;;;;;;;9.20;5.78;;;;;;;22.27;66.46;102365.25;5115056;28;20061;-61
2022/07/12 08:38:44;;;;;;;6.65;5.20;;;;;;;22.40;66.59;102369.19;5115074;28;20032;-61
2022/07/12 08:41:16;;;;;;;6.15;5.55;;;;;;;22.51;65.63;102372.28;5114919;28;20046;-61
2022/07/12 08:43:42;;;;;;;6.22;5.15;;;;;;;22.51;65.22;102371.44;5114886;28;20069;-61
2022/07/12 08:46:12;;;;;;;7.43;4.75;;;;;;;22.49;66.22;102374.19;5115001;28;20039;-61
2022/07/12 08:48:39;;;;;;;6.15;5.20;;;;;;;22.60;65.66;102373.75;5114572;28;20736;-61
2022/07/12 08:51:09;;;;;;;6.35;5.20;;;;;;;22.65;65.57;102378.91;5114781;28;20113;-61
2022/07/12 08:53:35;;;;;;;7.10;4.63;;;;;;;22.59;65.24;102374.69;5114511;28;20471;-61
2022/07/12 08:56:01;;;;;;;5.90;5.30;;;;;;;22.50;64.96;102380.38;5114017;28;20118;-61
2022/07/12 08:58:26;;;;;;;4.93;4.43;;;;;;;22.41;65.81;102386.06;5114747;28;20095;-59
2022/07/12 09:00:51;;;;;;;5.53;4.80;;;;;;;22.33;66.03;102380.16;5114698;28;20039;-60
2022/07/12 09:03:19;;;;;;;6.53;4.55;;;;;;;22.41;65.11;102386.94;5114450;28;20439;-60
2022/07/12 09:05:52;;;;;;;6.05;5.13;;;;;;;22.54;64.83;102384.66;5114402;28;20187;-59
2022/07/12 09:08:24;;;;;;;4.43;4.03;;;;;;;22.68;65.36;102384.13;5114295;28;20035;-61
2022/07/12 09:10:49;;;;;;;4.47;4.00;;;;;;;23.32;64.24;102386.88;5114446;28;20088;-60
2022/07/12 09:13:14;;;;;;;5.93;5.07;;;;;;;23.90;59.25;102379.88;5114160;28;20035;-60
2022/07/12 09:15:39;;;;;;;5.88;4.50;;;;;;;24.45;57.70;102378.25;5114153;28;20057;-60
2022/07/12 09:18:15;;;;;;;6.78;4.85;;;;;;;24.86;54.49;102378.09;5114260;28;20426;-61
2022/07/12 09:20:42;;;;;;;4.28;3.88;;;;;;;25.55;54.15;102370.16;5114505;28;20061;-61
2022/07/12 09:23:11;;;;;;;6.07;4.03;;;;;;;26.14;52.02;102372.38;5114153;28;20164;-60
2022/07/12 09:25:38;;;;;;;8.05;4.70;;;;;;;26.81;48.80;102373.16;5114117;28;20027;-60
2022/07/12 09:28:05;;;;;;;6.43;5.10;;;;;;;27.57;46.38;102374.91;5114359;28;20035;-60
2022/07/12 09:30:31;;;;;;;5.07;4.60;;;;;;;28.04;45.81;102366.63;5113737;28;20063;-60
2022/07/12 09:36:06;;;;;;;7.75;5.07;;;;;;;27.85;47.68;102366.03;5114062;28;20370;-61
2022/07/12 09:38:33;;;;;;;5.90;4.90;;;;;;;27.10;46.31;102366.97;5114091;28;20036;-61
2022/07/12 09:40:59;;;;;;;6.82;3.95;;;;;;;26.60;48.30;102359.97;5113847;28;20023;-60
2022/07/12 09:43:26;;;;;;;3.95;3.65;;;;;;;26.10;48.79;102356.53;5113950;28;20046;-60
2022/07/12 09:45:52;;;;;;;5.07;4.20;;;;;;;25.69;50.60;102362.28;5113803;28;20047;-61
2022/07/12 09:48:19;;;;;;;4.85;4.15;;;;;;;25.49;52.56;102362.41;5113657;28;20054;-60
2022/07/12 09:50:47;;;;;;;5.30;4.50;;;;;;;25.15;54.11;102369.50;5113591;28;20042;-60
2022/07/12 09:53:20;;;;;;;5.55;5.05;;;;;;;24.80;54.84;102362.31;5113502;28;20048;-60
2022/07/12 09:55:48;;;;;;;4.97;4.57;;;;;;;24.77;54.72;102363.31;5113526;28;20100;-61
2022/07/12 09:58:15;;;;;;;4.20;3.80;;;;;;;24.70;55.57;102366.41;5113349;28;20039;-61
2022/07/12 10:00:40;;;;;;;8.38;4.50;;;;;;;24.78;56.41;102366.88;5113302;28;20050;-61
2022/07/12 10:03:07;;;;;;;4.72;4.25;;;;;;;24.71;55.95;102352.06;5113149;28;20063;-61
2022/07/12 10:05:34;;;;;;;5.90;4.18;;;;;;;24.75;55.84;102353.66;5113102;28;20495;-62
2022/07/12 10:08:01;;;;;;;4.30;3.95;;;;;;;24.97;55.48;102354.34;5113215;28;20038;-60
2022/07/12 10:10:27;;;;;;;4.00;3.70;;;;;;;25.15;56.22;102348.06;5112635;28;20038;-60
2022/07/12 10:12:53;;;;;;;4.30;3.90;;;;;;;25.27;55.97;102343.91;5113011;28;20035;-60
2022/07/12 10:15:22;;;;;;;3.85;3.50;;;;;;;25.40;55.67;102346.81;5112918;28;20031;-61
2022/07/12 10:17:57;;;;;;;5.35;4.45;;;;;;;25.38;54.34;102332.63;5113025;28;20039;-61
2022/07/12 10:20:24;;;;;;;6.35;3.92;;;;;;;25.45;53.52;102331.38;5113032;28;20044;-60
2022/07/12 10:23:18;;;;;;;4.32;3.50;;;;;;;25.70;54.39;102342.56;5112997;28;20059;-62
2022/07/12 10:25:43;;;;;;;3.90;3.38;;;;;;;25.92;52.72;102329.75;5112648;28;20031;-62
2022/07/12 10:28:09;;;;;;;4.20;3.80;;;;;;;25.78;52.23;102334.13;5113046;28;20095;-61
2022/07/12 10:30:48;;;;;;;4.80;4.30;;;;;;;25.74;53.14;102336.09;5112747;28;20052;-60
2022/07/12 10:33:19;;;;;;;5.07;4.20;;;;;;;25.78;52.90;102326.09;5112767;28;20047;-60
2022/07/12 10:36:01;;;;;;;5.00;4.50;;;;;;;25.72;53.79;102337.13;5112843;28;20114;-60
2022/07/12 10:38:26;;;;;;;;;;;;;;;25.86;53.94;102327.38;5113151;28;20046;-61
2022/07/12 10:40:53;;;;;;;4.53;3.28;;;;;;;25.89;52.24;102335.28;5112580;28;19915;-61
2022/07/12 10:43:21;;;;;;;5.40;3.45;;;;;;;26.03;51.10;102334.53;5112504;28;20514;-62
2022/07/12 10:45:48;;;;;;;6.03;4.15;;;;;;;26.12;51.52;102334.03;5112349;28;20355;-61
2022/07/12 10:48:13;;;;;;;7.38;5.18;;;;;;;26.17;50.54;102333.75;5112462;28;20406;-61
2022/07/12 10:50:41;;;;;;;5.10;4.60;;;;;;;26.13;50.99;102337.59;5112613;28;20063;-61
2022/07/12 10:53:19;;;;;;;5.95;4.25;;;;;;;26.10;51.56;102327.00;5112305;28;20435;-60
2022/07/12 10:56:14;;;;;;;8.32;5.05;;;;;;;26.05;51.66;102329.06;5112227;28;20059;-61
2022/07/12 10:58:53;;;;;;;4.28;3.65;;;;;;;26.17;50.55;102333.75;5112431;28;20147;-62
2022/07/12 11:01:26;;;;;;;4.40;3.90;;;;;;;26.28;49.16;102332.22;5112174;28;20409;-61
2022/07/12 11:03:55;;;;;;;5.43;3.70;;;;;;;26.29;49.29;102331.31;5111972;28;20447;-62
2022/07/12 11:06:24;;;;;;;5.78;3.90;;;;;;;26.51;48.66;102333.63;5112077;28;20593;-61
2022/07/12 11:09:07;;;;;;;4.43;3.13;;;;;;;26.65;49.50;102330.19;5112059;28;20397;-61
2022/07/12 11:11:34;;;;;;;3.20;2.90;;;;;;;26.70;47.51;102337.00;5112030;28;20059;-61
2022/07/12 11:14:00;;;;;;;3.38;3.08;;;;;;;26.66;46.71;102330.09;5112122;28;20392;-62
2022/07/12 11:16:28;;;;;;;7.38;3.25;;;;;;;26.79;47.35;102337.44;5112040;28;20046;-61
2022/07/12 11:18:55;;;;;;;4.00;3.13;;;;;;;26.88;45.57;102331.53;5112023;28;20028;-62
2022/07/12 11:21:21;;;;;;;3.50;3.17;;;;;;;26.85;45.49;102323.63;5112240;28;20120;-59